State Rd, North Carolina
Current Conditions -  °F | °C
As of 5:55 AM on Friday 28 Nov 2014 (Local Time) from KUKF Reporting Station
Clear Clear  
Wind Chill: 28°   Ceiling: Unl
Heat Index: 28°   Visibility: 10mi
Dew Point: 18°   Wind: 0mph
Humidity: 64%   Direction: NA
Pressure: 30.36"   Gusts: NA
Location:  36.3943°N, 80.8906°W
Report Text: KUKF 281055Z AUTO 00000KT 10SM CLR M02/M08 A3036 RMK AO2
Loading
Personal Weather Stations






























Interactive Weather Map New forecast layout! Learn more

10-Day Weather Forecast

Advertisements
Track Severe Weather on mobile